Time;durP1;ratioP1;P1;durP2;ratioP2;P2;SDS_P1;SDS_P2;PMS_P1;PMS_P2;Temp;Humidity;BMP_temperature;BMP_pressure;BME280_temperature;BME280_humidity;BME280_pressure;Samples;Min_cycle;Max_cycle;Signal;HPM_P1;HPM_P2
2022/08/20 00:00:19;;;;;;;69.25;29.90;;;;;;;;;;1653813;29;22374;-62
2022/08/20 00:01:12;;;;;;;72.43;30.65;;;;;;;;;;1654853;29;21928;-62
2022/08/20 00:02:03;;;;;;;78.03;30.90;;;;;;;;;;1656001;29;22238;-63
2022/08/20 00:02:59;;;;;;;74.78;31.25;;;;;;;;;;1653434;29;21960;-64
2022/08/20 00:03:50;;;;;;;76.00;31.60;;;;;;;;;;1656040;29;21751;-62
2022/08/20 00:04:44;;;;;;;75.53;31.83;;;;;;;;;;1654920;29;21636;-63
2022/08/20 00:05:40;;;;;;;77.10;29.77;;;;;;;;;;1653805;29;21751;-62
2022/08/20 00:06:33;;;;;;;74.20;30.65;;;;;;;;;;1655795;29;21913;-64
2022/08/20 00:07:24;;;;;;;79.60;30.50;;;;;;;;;;1658160;29;21714;-62
2022/08/20 00:08:16;;;;;;;68.32;30.13;;;;;;;;;;1654995;29;21601;-63
2022/08/20 00:09:08;;;;;;;70.18;30.65;;;;;;;;;;1648936;29;21857;-63
2022/08/20 00:10:00;;;;;;;79.78;30.67;;;;;;;;;;1654441;29;21511;-63
2022/08/20 00:10:55;;;;;;;73.25;31.45;;;;;;;;;;1652931;29;21687;-62
2022/08/20 00:11:47;;;;;;;70.10;30.10;;;;;;;;;;1658189;29;22658;-63
2022/08/20 00:12:44;;;;;;;81.47;30.38;;;;;;;;;;1655460;29;21579;-62
2022/08/20 00:13:40;;;;;;;72.45;28.73;;;;;;;;;;1656512;29;21821;-63
2022/08/20 00:14:31;;;;;;;81.05;31.60;;;;;;;;;;1652269;29;21826;-63
2022/08/20 00:15:28;;;;;;;71.22;31.10;;;;;;;;;;1656495;29;21624;-63
2022/08/20 00:16:22;;;;;;;66.95;30.10;;;;;;;;;;1658149;29;21797;-63
2022/08/20 00:17:14;;;;;;;80.13;32.55;;;;;;;;;;1654848;29;21677;-63
2022/08/20 00:18:08;;;;;;;75.55;30.90;;;;;;;;;;1658311;29;21765;-62
2022/08/20 00:19:00;;;;;;;74.90;29.85;;;;;;;;;;1655425;29;21658;-63
2022/08/20 00:19:53;;;;;;;72.90;30.73;;;;;;;;;;1658994;29;21616;-63
2022/08/20 00:20:49;;;;;;;73.97;30.60;;;;;;;;;;1661209;29;21669;-62
2022/08/20 00:21:42;;;;;;;76.22;31.65;;;;;;;;;;1658581;29;21780;-63
2022/08/20 00:22:33;;;;;;;80.03;32.08;;;;;;;;;;1657945;29;21803;-63
2022/08/20 00:23:25;;;;;;;76.28;32.72;;;;;;;;;;1659531;29;21661;-62
2022/08/20 00:24:17;;;;;;;77.63;30.73;;;;;;;;;;1657341;29;21665;-62
2022/08/20 00:25:11;;;;;;;85.25;32.45;;;;;;;;;;1658332;29;21589;-63
2022/08/20 00:26:02;;;;;;;67.63;30.98;;;;;;;;;;1661648;29;21745;-62
2022/08/20 00:26:54;;;;;;;79.03;32.05;;;;;;;;;;1658351;29;21642;-63
2022/08/20 00:27:46;;;;;;;85.40;31.15;;;;;;;;;;1653178;29;21600;-63
2022/08/20 00:28:39;;;;;;;74.35;30.38;;;;;;;;;;1656881;29;21593;-62
2022/08/20 00:29:30;;;;;;;87.63;32.63;;;;;;;;;;1658676;29;21633;-62
2022/08/20 00:30:23;;;;;;;71.22;30.77;;;;;;;;;;1653233;29;21658;-62
2022/08/20 00:31:18;;;;;;;74.15;31.58;;;;;;;;;;1660673;29;21650;-63
2022/08/20 00:32:10;;;;;;;76.50;30.80;;;;;;;;;;1657223;29;22228;-63
2022/08/20 00:33:07;;;;;;;77.32;30.88;;;;;;;;;;1654609;29;21671;-62
2022/08/20 00:33:59;;;;;;;75.47;31.45;;;;;;;;;;1656233;29;22388;-62
2022/08/20 00:34:52;;;;;;;70.45;30.52;;;;;;;;;;1655741;29;21690;-62
2022/08/20 00:35:48;;;;;;;75.13;31.27;;;;;;;;;;1656923;29;21721;-62
2022/08/20 00:36:39;;;;;;;76.43;31.30;;;;;;;;;;1660371;29;21589;-62
2022/08/20 00:37:32;;;;;;;74.78;32.63;;;;;;;;;;1659830;29;21586;-62
2022/08/20 00:38:24;;;;;;;76.97;32.40;;;;;;;;;;1655677;29;22087;-62
2022/08/20 00:39:16;;;;;;;78.65;31.77;;;;;;;;;;1657348;29;21665;-62
2022/08/20 00:40:09;;;;;;;80.88;31.85;;;;;;;;;;1656293;29;21657;-62
2022/08/20 00:41:02;;;;;;;81.25;30.88;;;;;;;;;;1657345;29;21668;-62
2022/08/20 00:41:53;;;;;;;70.97;30.65;;;;;;;;;;1655705;29;22327;-62
2022/08/20 00:42:49;;;;;;;73.38;32.63;;;;;;;;;;1656814;29;21581;-62
2022/08/20 00:43:43;;;;;;;75.10;32.80;;;;;;;;;;1657002;29;21655;-62
2022/08/20 00:44:36;;;;;;;78.32;31.33;;;;;;;;;;1654211;29;22631;-62
2022/08/20 00:45:31;;;;;;;73.28;30.52;;;;;;;;;;1655094;29;22266;-62
2022/08/20 00:46:26;;;;;;;72.72;31.40;;;;;;;;;;1658708;29;22143;-62
2022/08/20 00:47:18;;;;;;;78.75;30.17;;;;;;;;;;1657614;29;21629;-63
2022/08/20 00:48:11;;;;;;;75.20;30.20;;;;;;;;;;1655419;29;21657;-62
2022/08/20 00:49:06;;;;;;;79.32;31.27;;;;;;;;;;1656393;29;22178;-62
2022/08/20 00:50:00;;;;;;;79.43;29.60;;;;;;;;;;1657434;29;21782;-62
2022/08/20 00:50:55;;;;;;;67.03;27.95;;;;;;;;;;1656612;29;21681;-62
2022/08/20 00:51:53;;;;;;;71.88;30.20;;;;;;;;;;1653316;29;21618;-62
2022/08/20 00:52:48;;;;;;;71.18;29.20;;;;;;;;;;1648177;29;22642;-62
2022/08/20 00:53:41;;;;;;;66.80;28.80;;;;;;;;;;1654622;29;21797;-62
2022/08/20 00:54:37;;;;;;;62.58;26.17;;;;;;;;;;1655407;29;21701;-63
2022/08/20 00:55:30;;;;;;;61.88;26.85;;;;;;;;;;1654587;29;21864;-62
2022/08/20 00:56:22;;;;;;;58.17;26.52;;;;;;;;;;1656899;29;21722;-61
2022/08/20 00:57:23;;;;;;;67.00;26.17;;;;;;;;;;1659874;29;21685;-64
2022/08/20 00:58:14;;;;;;;58.20;25.67;;;;;;;;;;1655987;29;21586;-63
2022/08/20 00:59:12;;;;;;;55.60;26.52;;;;;;;;;;1661500;29;21723;-63
2022/08/20 01:00:10;;;;;;;58.38;25.55;;;;;;;;;;1656242;29;22285;-63
2022/08/20 01:01:03;;;;;;;53.72;23.98;;;;;;;;;;1659230;29;22185;-63
2022/08/20 01:01:54;;;;;;;55.72;25.02;;;;;;;;;;1658182;29;21621;-63
2022/08/20 01:02:49;;;;;;;51.80;23.88;;;;;;;;;;1656226;29;22173;-63
2022/08/20 01:03:41;;;;;;;43.60;22.42;;;;;;;;;;1657913;29;21944;-63
2022/08/20 01:04:35;;;;;;;50.22;23.08;;;;;;;;;;1659362;29;21578;-63
2022/08/20 01:05:28;;;;;;;51.78;22.80;;;;;;;;;;1658609;29;21664;-63
2022/08/20 01:06:20;;;;;;;47.70;24.08;;;;;;;;;;1655861;29;21546;-63
2022/08/20 01:07:11;;;;;;;64.15;23.13;;;;;;;;;;1657577;29;21842;-63
2022/08/20 01:08:05;;;;;;;52.00;23.98;;;;;;;;;;1660426;29;21759;-63
2022/08/20 01:08:57;;;;;;;50.00;23.20;;;;;;;;;;1655629;29;21611;-63
2022/08/20 01:09:49;;;;;;;50.05;23.33;;;;;;;;;;1657141;29;22123;-63
2022/08/20 01:10:44;;;;;;;44.78;21.27;;;;;;;;;;1658005;29;21859;-63
2022/08/20 01:11:36;;;;;;;54.05;23.15;;;;;;;;;;1653761;29;21786;-63
2022/08/20 01:12:28;;;;;;;46.45;22.23;;;;;;;;;;1659366;29;22136;-63
2022/08/20 01:13:24;;;;;;;51.78;21.33;;;;;;;;;;1659243;29;21610;-61
2022/08/20 01:14:35;;;;;;;48.65;23.45;;;;;;;;;;1656282;29;21654;-63
2022/08/20 01:15:30;;;;;;;41.35;20.48;;;;;;;;;;1655432;29;22112;-63
2022/08/20 01:16:27;;;;;;;40.25;20.50;;;;;;;;;;1657136;29;22294;-63
2022/08/20 01:17:23;;;;;;;39.55;20.00;;;;;;;;;;1653712;29;21664;-63
2022/08/20 01:18:19;;;;;;;44.90;19.45;;;;;;;;;;1649397;29;21774;-63
2022/08/20 01:19:14;;;;;;;46.80;20.42;;;;;;;;;;1650293;29;22352;-64
2022/08/20 01:20:11;;;;;;;44.97;20.38;;;;;;;;;;1661715;29;22468;-63
2022/08/20 01:21:07;;;;;;;40.53;21.00;;;;;;;;;;1655884;29;22143;-63
2022/08/20 01:22:00;;;;;;;46.40;20.73;;;;;;;;;;1655651;29;22145;-62
2022/08/20 01:24:17;;;;;;;37.00;18.38;;;;;;;;;;1656449;29;21654;-62
2022/08/20 01:25:19;;;;;;;43.00;20.13;;;;;;;;;;1656542;29;22829;-62
2022/08/20 01:26:17;;;;;;;43.30;19.90;;;;;;;;;;1656058;29;22451;-63
2022/08/20 01:27:09;;;;;;;43.55;20.00;;;;;;;;;;1656403;29;21628;-63
2022/08/20 01:28:00;;;;;;;38.53;19.45;;;;;;;;;;1657059;29;21657;-62
2022/08/20 01:28:56;;;;;;;42.33;19.20;;;;;;;;;;1655244;29;21934;-63
2022/08/20 01:29:49;;;;;;;42.38;17.58;;;;;;;;;;1659011;29;21682;-63
2022/08/20 01:30:42;;;;;;;38.63;18.98;;;;;;;;;;1659702;29;21598;-63
2022/08/20 01:31:38;;;;;;;42.28;18.75;;;;;;;;;;1659296;29;22119;-63
2022/08/20 01:32:30;;;;;;;33.15;18.02;;;;;;;;;;1662302;29;21675;-62
2022/08/20 01:33:22;;;;;;;42.65;19.08;;;;;;;;;;1657403;29;21651;-62
2022/08/20 01:34:18;;;;;;;42.95;18.67;;;;;;;;;;1658959;29;21623;-63
2022/08/20 01:35:09;;;;;;;34.83;18.52;;;;;;;;;;1658706;29;21683;-62
2022/08/20 01:36:02;;;;;;;36.40;17.55;;;;;;;;;;1658662;29;21604;-63
2022/08/20 01:36:56;;;;;;;34.50;17.48;;;;;;;;;;1659240;29;22163;-62
2022/08/20 01:37:48;;;;;;;38.30;17.90;;;;;;;;;;1657246;29;22603;-62
2022/08/20 01:38:40;;;;;;;37.95;18.10;;;;;;;;;;1660742;29;21644;-63
2022/08/20 01:39:36;;;;;;;32.33;17.25;;;;;;;;;;1660423;29;21580;-63
2022/08/20 01:40:47;;;;;;;43.10;19.17;;;;;;;;;;1658492;29;22257;-63
2022/08/20 01:41:57;;;;;;;28.67;16.25;;;;;;;;;;1660449;29;21614;-63
2022/08/20 01:42:48;;;;;;;36.55;17.45;;;;;;;;;;1650244;29;21599;-63
2022/08/20 01:43:41;;;;;;;31.80;17.05;;;;;;;;;;1651723;29;21635;-63
2022/08/20 01:44:35;;;;;;;27.42;16.70;;;;;;;;;;1655955;29;22253;-63
2022/08/20 01:45:27;;;;;;;35.60;16.45;;;;;;;;;;1660602;29;21602;-63
2022/08/20 01:46:19;;;;;;;34.60;16.15;;;;;;;;;;1661992;29;22032;-63
2022/08/20 01:47:16;;;;;;;31.25;16.52;;;;;;;;;;1658977;29;21656;-63
2022/08/20 01:48:09;;;;;;;27.85;15.77;;;;;;;;;;1657024;29;21593;-63
2022/08/20 01:49:08;;;;;;;35.55;15.98;;;;;;;;;;1660052;29;21659;-63
2022/08/20 01:50:06;;;;;;;29.42;15.27;;;;;;;;;;1657096;29;22120;-62
2022/08/20 01:51:04;;;;;;;25.73;15.30;;;;;;;;;;1652990;29;21743;-62
2022/08/20 01:52:05;;;;;;;27.20;14.10;;;;;;;;;;1653995;29;21683;-62
2022/08/20 01:53:03;;;;;;;25.42;14.60;;;;;;;;;;1657270;29;21591;-60
2022/08/20 01:53:59;;;;;;;28.25;14.57;;;;;;;;;;1656004;29;21597;-62
2022/08/20 01:54:51;;;;;;;29.88;14.98;;;;;;;;;;1656984;29;21701;-62
2022/08/20 01:55:43;;;;;;;25.35;14.27;;;;;;;;;;1659810;29;21646;-63
2022/08/20 01:56:35;;;;;;;21.60;13.35;;;;;;;;;;1661593;29;21678;-63
2022/08/20 01:57:29;;;;;;;33.38;13.65;;;;;;;;;;1658202;29;21582;-62
2022/08/20 01:58:20;;;;;;;24.00;14.27;;;;;;;;;;1660165;29;21686;-62
2022/08/20 01:59:12;;;;;;;26.27;14.02;;;;;;;;;;1659177;29;22241;-62
2022/08/20 02:00:07;;;;;;;22.25;13.88;;;;;;;;;;1659323;29;21770;-62
2022/08/20 02:00:59;;;;;;;24.55;14.18;;;;;;;;;;1655586;29;21725;-62
2022/08/20 02:01:52;;;;;;;30.67;14.93;;;;;;;;;;1656336;29;21720;-62
2022/08/20 02:02:44;;;;;;;26.70;13.55;;;;;;;;;;1658012;29;21598;-62
2022/08/20 02:03:35;;;;;;;21.00;13.77;;;;;;;;;;1657288;29;22365;-62
2022/08/20 02:04:27;;;;;;;28.30;14.00;;;;;;;;;;1656659;29;21664;-62
2022/08/20 02:05:19;;;;;;;24.65;13.63;;;;;;;;;;1658219;29;21768;-62
2022/08/20 02:06:10;;;;;;;18.83;13.10;;;;;;;;;;1657968;29;22017;-62
2022/08/20 02:07:06;;;;;;;21.63;13.32;;;;;;;;;;1659305;29;21648;-63
2022/08/20 02:07:58;;;;;;;22.08;12.18;;;;;;;;;;1655343;29;21653;-62
2022/08/20 02:08:51;;;;;;;22.63;12.50;;;;;;;;;;1657630;29;21584;-62
2022/08/20 02:09:44;;;;;;;26.38;13.48;;;;;;;;;;1659024;29;21735;-62
2022/08/20 02:10:36;;;;;;;18.50;12.77;;;;;;;;;;1658088;29;21610;-63
2022/08/20 02:11:30;;;;;;;28.98;14.48;;;;;;;;;;1659964;29;21649;-63
2022/08/20 02:12:22;;;;;;;20.20;13.48;;;;;;;;;;1660345;29;22435;-63
2022/08/20 02:13:15;;;;;;;18.48;11.98;;;;;;;;;;1659695;29;21615;-62
2022/08/20 02:14:10;;;;;;;20.55;12.07;;;;;;;;;;1655648;29;22399;-63
2022/08/20 02:15:04;;;;;;;19.58;13.02;;;;;;;;;;1656668;29;22223;-62
2022/08/20 02:15:56;;;;;;;16.98;10.95;;;;;;;;;;1657823;29;21584;-62
2022/08/20 02:16:48;;;;;;;26.98;13.00;;;;;;;;;;1657294;29;21634;-62
2022/08/20 02:17:42;;;;;;;23.25;12.80;;;;;;;;;;1656649;29;22480;-62
2022/08/20 02:18:33;;;;;;;16.20;11.55;;;;;;;;;;1658422;29;21698;-62
2022/08/20 02:19:30;;;;;;;24.70;12.77;;;;;;;;;;1657477;29;22685;-62
2022/08/20 02:20:28;;;;;;;20.25;12.15;;;;;;;;;;1656551;29;22021;-62
2022/08/20 02:21:21;;;;;;;27.27;13.20;;;;;;;;;;1658117;29;21696;-63
2022/08/20 02:22:21;;;;;;;29.88;13.00;;;;;;;;;;1658123;29;21781;-62
2022/08/20 02:23:14;;;;;;;;;;;;;;;;;;1656387;29;21684;-61
2022/08/20 02:24:07;;;;;;;16.23;11.05;;;;;;;;;;1657392;29;21427;-62
2022/08/20 02:24:58;;;;;;;15.65;11.90;;;;;;;;;;1655864;29;21641;-62
2022/08/20 02:25:51;;;;;;;21.15;11.32;;;;;;;;;;1661977;29;21797;-62
2022/08/20 02:26:43;;;;;;;18.85;12.05;;;;;;;;;;1656857;29;21635;-62
2022/08/20 02:27:35;;;;;;;18.02;11.63;;;;;;;;;;1653449;29;21608;-62
2022/08/20 02:28:28;;;;;;;19.02;12.02;;;;;;;;;;1655426;29;22280;-62
2022/08/20 02:29:21;;;;;;;15.10;11.05;;;;;;;;;;1652380;29;21654;-62
2022/08/20 02:30:19;;;;;;;15.93;11.35;;;;;;;;;;1654237;29;21607;-61
2022/08/20 02:31:11;;;;;;;13.90;10.65;;;;;;;;;;1657763;29;21740;-61
2022/08/20 02:32:05;;;;;;;17.85;10.98;;;;;;;;;;1652112;29;22144;-63
2022/08/20 02:32:57;;;;;;;19.48;10.77;;;;;;;;;;1651309;29;21787;-63
2022/08/20 02:33:49;;;;;;;20.17;11.75;;;;;;;;;;1652926;29;21851;-62
2022/08/20 02:34:42;;;;;;;20.67;10.88;;;;;;;;;;1656885;29;22284;-62
2022/08/20 02:35:33;;;;;;;16.35;10.65;;;;;;;;;;1659009;29;22004;-62
2022/08/20 02:36:26;;;;;;;18.15;11.15;;;;;;;;;;1652693;29;21993;-62
2022/08/20 02:37:18;;;;;;;16.50;10.20;;;;;;;;;;1658441;29;22440;-64
2022/08/20 02:38:10;;;;;;;14.57;10.75;;;;;;;;;;1654960;29;22027;-63
2022/08/20 02:39:03;;;;;;;14.85;11.00;;;;;;;;;;1658719;29;21743;-62
2022/08/20 02:39:55;;;;;;;12.95;10.43;;;;;;;;;;1662272;29;21554;-63
2022/08/20 02:40:48;;;;;;;19.02;10.75;;;;;;;;;;1659265;29;22134;-63
2022/08/20 02:41:41;;;;;;;12.02;9.93;;;;;;;;;;1657488;29;21846;-62
2022/08/20 02:42:32;;;;;;;13.95;10.85;;;;;;;;;;1659727;29;22149;-62
2022/08/20 02:43:25;;;;;;;19.95;10.25;;;;;;;;;;1655611;29;22486;-62
2022/08/20 02:44:19;;;;;;;18.33;10.25;;;;;;;;;;1654575;29;21651;-61
2022/08/20 02:45:15;;;;;;;14.75;9.90;;;;;;;;;;1654655;29;22266;-62
2022/08/20 02:46:07;;;;;;;15.30;9.50;;;;;;;;;;1659514;29;22030;-62
2022/08/20 02:46:59;;;;;;;13.27;9.88;;;;;;;;;;1648745;29;21608;-62
2022/08/20 02:47:52;;;;;;;14.75;9.30;;;;;;;;;;1651801;29;22034;-63
2022/08/20 02:48:45;;;;;;;11.35;9.93;;;;;;;;;;1656432;29;21582;-62
2022/08/20 02:49:36;;;;;;;13.20;9.40;;;;;;;;;;1654940;29;22054;-62
2022/08/20 02:50:29;;;;;;;17.45;9.70;;;;;;;;;;1656982;29;22213;-63
2022/08/20 02:51:20;;;;;;;12.57;9.25;;;;;;;;;;1657990;29;22006;-62
2022/08/20 02:52:13;;;;;;;15.50;9.57;;;;;;;;;;1657594;29;21564;-62
2022/08/20 02:53:04;;;;;;;9.85;8.48;;;;;;;;;;1661094;29;21564;-62
2022/08/20 02:53:56;;;;;;;10.00;8.60;;;;;;;;;;1659388;29;21580;-62
2022/08/20 02:54:48;;;;;;;10.35;9.32;;;;;;;;;;1658431;29;22617;-62
2022/08/20 02:55:40;;;;;;;15.10;9.02;;;;;;;;;;1660444;29;22290;-62
2022/08/20 02:56:31;;;;;;;10.80;8.45;;;;;;;;;;1660275;29;21628;-62
2022/08/20 02:57:24;;;;;;;10.70;8.55;;;;;;;;;;1655751;29;21678;-62
2022/08/20 02:58:17;;;;;;;12.32;8.50;;;;;;;;;;1655746;29;22196;-62
2022/08/20 02:59:09;;;;;;;14.27;8.82;;;;;;;;;;1657877;29;21526;-63
2022/08/20 03:00:04;;;;;;;14.35;8.85;;;;;;;;;;1654964;29;21683;-62
2022/08/20 03:00:57;;;;;;;11.05;8.45;;;;;;;;;;1654183;29;21726;-62
2022/08/20 03:01:48;;;;;;;8.68;7.90;;;;;;;;;;1656508;29;21593;-63
2022/08/20 03:02:41;;;;;;;10.93;8.93;;;;;;;;;;1652947;29;22617;-62
2022/08/20 03:03:33;;;;;;;9.45;8.57;;;;;;;;;;1653943;29;21843;-61
2022/08/20 03:04:25;;;;;;;13.20;8.70;;;;;;;;;;1653986;29;21629;-63
2022/08/20 03:05:16;;;;;;;10.10;8.18;;;;;;;;;;1653688;29;21733;-63
2022/08/20 03:06:11;;;;;;;8.80;7.93;;;;;;;;;;1655481;29;21619;-63
2022/08/20 03:07:04;;;;;;;11.25;7.80;;;;;;;;;;1655417;29;22230;-63
2022/08/20 03:07:57;;;;;;;8.45;7.47;;;;;;;;;;1654840;29;21676;-62
2022/08/20 03:08:48;;;;;;;11.80;8.27;;;;;;;;;;1654129;29;21808;-63
2022/08/20 03:09:41;;;;;;;8.55;7.85;;;;;;;;;;1655559;29;21681;-63
2022/08/20 03:10:35;;;;;;;19.63;7.45;;;;;;;;;;1650228;29;21612;-63
2022/08/20 03:11:27;;;;;;;11.27;7.72;;;;;;;;;;1654358;29;22049;-63
2022/08/20 03:12:18;;;;;;;12.75;8.30;;;;;;;;;;1655321;29;22509;-63
2022/08/20 03:13:12;;;;;;;8.25;7.55;;;;;;;;;;1655368;29;21765;-63
2022/08/20 03:14:03;;;;;;;12.50;7.70;;;;;;;;;;1653826;29;21651;-63
2022/08/20 03:14:56;;;;;;;9.60;7.78;;;;;;;;;;1653750;29;22538;-62
2022/08/20 03:15:56;;;;;;;8.60;7.70;;;;;;;;;;1655244;29;22203;-63
2022/08/20 03:16:49;;;;;;;9.98;7.55;;;;;;;;;;1653270;29;21688;-63
2022/08/20 03:17:40;;;;;;;9.10;6.68;;;;;;;;;;1654888;29;22421;-63
2022/08/20 03:18:38;;;;;;;11.75;7.20;;;;;;;;;;1655207;29;21875;-63
2022/08/20 03:19:30;;;;;;;8.50;7.03;;;;;;;;;;1647247;29;21615;-62
2022/08/20 03:20:23;;;;;;;10.25;7.55;;;;;;;;;;1648374;29;21982;-62
2022/08/20 03:21:14;;;;;;;8.30;7.47;;;;;;;;;;1653124;29;21676;-62
2022/08/20 03:22:07;;;;;;;6.88;6.22;;;;;;;;;;1655360;29;22474;-62
2022/08/20 03:22:58;;;;;;;7.43;6.72;;;;;;;;;;1654057;29;22259;-62
2022/08/20 03:23:51;;;;;;;7.97;7.32;;;;;;;;;;1654870;29;21656;-62
2022/08/20 03:24:42;;;;;;;8.23;7.15;;;;;;;;;;1653421;29;22288;-62
2022/08/20 03:25:34;;;;;;;13.70;6.68;;;;;;;;;;1653985;29;22205;-62
2022/08/20 03:26:25;;;;;;;7.38;6.68;;;;;;;;;;1648119;29;22027;-62
2022/08/20 03:27:18;;;;;;;7.85;7.07;;;;;;;;;;1647578;29;22358;-62
2022/08/20 03:28:09;;;;;;;10.00;7.25;;;;;;;;;;1652749;29;22081;-62
2022/08/20 03:29:01;;;;;;;7.85;6.78;;;;;;;;;;1655046;29;21995;-62
2022/08/20 03:29:53;;;;;;;7.60;6.78;;;;;;;;;;1650821;29;21892;-62
2022/08/20 03:30:45;;;;;;;7.13;6.47;;;;;;;;;;1654178;29;22281;-62
2022/08/20 03:31:38;;;;;;;9.35;6.50;;;;;;;;;;1655277;29;21804;-61
2022/08/20 03:32:30;;;;;;;7.75;6.60;;;;;;;;;;1654660;29;21760;-62
2022/08/20 03:33:22;;;;;;;7.30;6.32;;;;;;;;;;1653338;29;21914;-62
2022/08/20 03:34:15;;;;;;;7.65;6.30;;;;;;;;;;1654895;29;21619;-62
2022/08/20 03:35:10;;;;;;;9.27;6.78;;;;;;;;;;1653654;29;21725;-62
2022/08/20 03:36:03;;;;;;;11.63;6.93;;;;;;;;;;1655532;29;21753;-62
2022/08/20 03:36:55;;;;;;;13.40;6.65;;;;;;;;;;1654837;29;21699;-62
2022/08/20 03:37:46;;;;;;;7.20;6.50;;;;;;;;;;1655158;29;21659;-62
2022/08/20 03:38:39;;;;;;;7.00;6.30;;;;;;;;;;1653754;29;21598;-62
2022/08/20 03:39:30;;;;;;;9.77;7.32;;;;;;;;;;1649051;29;21644;-63
2022/08/20 03:40:26;;;;;;;7.63;6.28;;;;;;;;;;1655752;29;21621;-62
2022/08/20 03:41:17;;;;;;;8.43;6.93;;;;;;;;;;1655174;29;21721;-62
2022/08/20 03:42:10;;;;;;;11.50;7.28;;;;;;;;;;1651551;29;22085;-62
2022/08/20 03:43:01;;;;;;;10.82;6.65;;;;;;;;;;1662252;29;22242;-62
2022/08/20 03:43:53;;;;;;;7.32;6.18;;;;;;;;;;1654686;29;21668;-61
2022/08/20 03:44:45;;;;;;;8.98;6.78;;;;;;;;;;1655160;29;21778;-62
2022/08/20 03:45:38;;;;;;;7.72;6.38;;;;;;;;;;1655493;29;21759;-62
2022/08/20 03:46:29;;;;;;;8.93;6.72;;;;;;;;;;1655772;29;21621;-62
2022/08/20 03:47:23;;;;;;;7.03;6.30;;;;;;;;;;1653952;29;21583;-62
2022/08/20 03:48:17;;;;;;;6.88;6.32;;;;;;;;;;1655275;29;21655;-62
2022/08/20 03:49:10;;;;;;;7.90;6.15;;;;;;;;;;1650153;29;21617;-61
2022/08/20 03:50:03;;;;;;;6.90;6.15;;;;;;;;;;1649336;29;22359;-62
2022/08/20 03:50:59;;;;;;;6.68;6.07;;;;;;;;;;1647588;29;21621;-62
2022/08/20 03:51:51;;;;;;;6.80;6.03;;;;;;;;;;1646461;29;21620;-62
2022/08/20 03:52:43;;;;;;;9.07;6.40;;;;;;;;;;1654155;29;21651;-62
2022/08/20 03:53:34;;;;;;;7.57;6.32;;;;;;;;;;1655213;29;21773;-62
2022/08/20 03:54:27;;;;;;;6.18;5.68;;;;;;;;;;1652555;29;21674;-62
2022/08/20 03:55:19;;;;;;;8.32;5.93;;;;;;;;;;1654049;29;22052;-62
2022/08/20 03:56:12;;;;;;;8.00;6.82;;;;;;;;;;1658341;29;22162;-62
2022/08/20 03:57:05;;;;;;;8.73;6.88;;;;;;;;;;1654415;29;21770;-62
2022/08/20 03:58:01;;;;;;;10.80;6.20;;;;;;;;;;1647427;29;21653;-62
2022/08/20 03:58:52;;;;;;;8.35;6.25;;;;;;;;;;1649404;29;21786;-62
2022/08/20 03:59:45;;;;;;;6.55;5.95;;;;;;;;;;1648781;29;21622;-62
2022/08/20 04:00:40;;;;;;;6.20;5.78;;;;;;;;;;1653949;29;21592;-62
2022/08/20 04:01:32;;;;;;;6.72;6.13;;;;;;;;;;1650632;29;22035;-61
2022/08/20 04:02:26;;;;;;;6.63;6.03;;;;;;;;;;1653997;29;21662;-62
2022/08/20 04:03:18;;;;;;;7.28;6.68;;;;;;;;;;1655919;29;22098;-63
2022/08/20 04:04:10;;;;;;;6.25;5.75;;;;;;;;;;1651966;29;21880;-62
2022/08/20 04:05:02;;;;;;;6.97;6.38;;;;;;;;;;1654067;29;21816;-62
2022/08/20 04:05:53;;;;;;;9.30;6.43;;;;;;;;;;1654073;29;21753;-62
2022/08/20 04:06:45;;;;;;;6.97;5.82;;;;;;;;;;1657326;29;21754;-62
2022/08/20 04:07:37;;;;;;;8.60;5.75;;;;;;;;;;1649926;29;21830;-61
2022/08/20 04:08:29;;;;;;;8.00;6.00;;;;;;;;;;1649070;29;21861;-62
2022/08/20 04:09:21;;;;;;;8.15;6.18;;;;;;;;;;1656322;29;22031;-61
2022/08/20 04:10:13;;;;;;;10.18;6.05;;;;;;;;;;1659341;29;22083;-62
2022/08/20 04:11:05;;;;;;;6.22;5.63;;;;;;;;;;1656355;29;21715;-63
2022/08/20 04:11:59;;;;;;;6.20;5.70;;;;;;;;;;1656404;29;21960;-63
2022/08/20 04:12:51;;;;;;;6.28;5.65;;;;;;;;;;1649048;29;21683;-62
2022/08/20 04:13:43;;;;;;;6.95;6.35;;;;;;;;;;1651197;29;21646;-62
2022/08/20 04:14:35;;;;;;;6.20;5.60;;;;;;;;;;1653472;29;21919;-62
2022/08/20 04:15:27;;;;;;;8.48;5.50;;;;;;;;;;1656412;29;21751;-62
2022/08/20 04:16:19;;;;;;;7.25;6.43;;;;;;;;;;1655846;29;22340;-62
2022/08/20 04:17:12;;;;;;;8.52;6.45;;;;;;;;;;1654406;29;21600;-63
2022/08/20 04:18:08;;;;;;;6.25;5.70;;;;;;;;;;1656514;29;22007;-62
2022/08/20 04:19:02;;;;;;;6.20;5.60;;;;;;;;;;1657970;29;21548;-62
2022/08/20 04:19:53;;;;;;;9.45;6.15;;;;;;;;;;1656378;29;21702;-63
2022/08/20 04:20:45;;;;;;;6.30;5.90;;;;;;;;;;1656743;29;22216;-63
2022/08/20 04:21:37;;;;;;;6.45;5.78;;;;;;;;;;1657946;29;22300;-63
2022/08/20 04:22:29;;;;;;;7.68;5.55;;;;;;;;;;1657490;29;21847;-63
2022/08/20 04:23:21;;;;;;;8.02;5.65;;;;;;;;;;1659020;29;21717;-62
2022/08/20 04:24:14;;;;;;;11.30;5.68;;;;;;;;;;1656775;29;23026;-63
2022/08/20 04:25:07;;;;;;;6.15;5.35;;;;;;;;;;1655610;29;21571;-62
2022/08/20 04:26:00;;;;;;;6.60;5.75;;;;;;;;;;1660447;29;21776;-63
2022/08/20 04:26:51;;;;;;;6.40;5.80;;;;;;;;;;1657922;29;22352;-63
2022/08/20 04:27:45;;;;;;;8.07;5.75;;;;;;;;;;1655961;29;22210;-63
2022/08/20 04:28:36;;;;;;;10.73;6.07;;;;;;;;;;1658123;29;21729;-63
2022/08/20 04:29:28;;;;;;;5.63;5.18;;;;;;;;;;1659204;29;21541;-63
2022/08/20 04:30:21;;;;;;;6.10;5.60;;;;;;;;;;1658877;29;21670;-62
2022/08/20 04:31:13;;;;;;;7.15;5.43;;;;;;;;;;1659864;29;21622;-63
2022/08/20 04:32:05;;;;;;;8.68;5.57;;;;;;;;;;1650663;29;22104;-63
2022/08/20 04:32:58;;;;;;;6.05;5.55;;;;;;;;;;1652339;29;22197;-63
2022/08/20 04:33:50;;;;;;;8.40;5.28;;;;;;;;;;1657594;29;21635;-63
2022/08/20 04:34:43;;;;;;;5.72;5.22;;;;;;;;;;1657042;29;21696;-63
2022/08/20 04:35:34;;;;;;;5.93;5.53;;;;;;;;;;1658383;29;21618;-62
2022/08/20 04:36:26;;;;;;;5.90;5.40;;;;;;;;;;1661093;29;21616;-63
2022/08/20 04:37:22;;;;;;;8.20;5.40;;;;;;;;;;1658197;29;21610;-62
2022/08/20 04:38:17;;;;;;;6.00;5.40;;;;;;;;;;1654977;29;21969;-62
2022/08/20 04:39:08;;;;;;;6.45;5.35;;;;;;;;;;1657231;29;21772;-63
2022/08/20 04:41:14;;;;;;;7.25;5.82;;;;;;;;;;1659863;29;22427;-61
2022/08/20 04:42:06;;;;;;;5.82;5.32;;;;;;;;;;1660909;29;21771;-61
2022/08/20 04:42:57;;;;;;;6.43;5.60;;;;;;;;;;1659769;29;21619;-64
2022/08/20 04:43:50;;;;;;;9.70;5.28;;;;;;;;;;1657220;29;22070;-62
2022/08/20 04:44:41;;;;;;;8.18;5.53;;;;;;;;;;1655813;29;21712;-63
2022/08/20 04:45:34;;;;;;;6.70;5.30;;;;;;;;;;1659948;29;21626;-61
2022/08/20 04:46:27;;;;;;;9.52;5.20;;;;;;;;;;1657967;29;21943;-62
2022/08/20 04:47:20;;;;;;;11.30;5.95;;;;;;;;;;1657453;29;21619;-62
2022/08/20 04:48:12;;;;;;;6.10;5.55;;;;;;;;;;1658163;29;22072;-62
2022/08/20 04:49:06;;;;;;;6.22;5.53;;;;;;;;;;1658648;29;21641;-62
2022/08/20 04:49:59;;;;;;;7.03;6.40;;;;;;;;;;1655642;29;21677;-62
2022/08/20 04:50:52;;;;;;;7.93;5.20;;;;;;;;;;1651715;29;21613;-61
2022/08/20 04:51:43;;;;;;;7.72;5.78;;;;;;;;;;1656442;29;21617;-62
2022/08/20 04:52:36;;;;;;;7.00;5.78;;;;;;;;;;1657444;29;22447;-64
2022/08/20 04:53:28;;;;;;;6.25;5.45;;;;;;;;;;1658487;29;22048;-63
2022/08/20 04:54:21;;;;;;;10.43;5.20;;;;;;;;;;1655343;29;21611;-63
2022/08/20 04:55:12;;;;;;;5.80;5.30;;;;;;;;;;1658026;29;21765;-63
2022/08/20 04:56:05;;;;;;;14.57;6.90;;;;;;;;;;1658305;29;22146;-63
2022/08/20 04:56:58;;;;;;;8.32;5.68;;;;;;;;;;1658772;29;21610;-63
2022/08/20 04:57:51;;;;;;;8.07;5.20;;;;;;;;;;1658727;29;21665;-63
2022/08/20 04:58:47;;;;;;;6.63;5.82;;;;;;;;;;1659493;29;22321;-63
2022/08/20 04:59:40;;;;;;;6.10;5.43;;;;;;;;;;1655901;29;21978;-63
2022/08/20 05:00:31;;;;;;;6.70;6.10;;;;;;;;;;1659874;29;21861;-63
2022/08/20 05:01:24;;;;;;;9.02;4.90;;;;;;;;;;1658657;29;21581;-63
2022/08/20 05:02:17;;;;;;;5.97;5.35;;;;;;;;;;1657313;29;22537;-63
2022/08/20 05:03:09;;;;;;;6.50;5.78;;;;;;;;;;1656759;29;21618;-63
2022/08/20 05:04:00;;;;;;;5.65;5.25;;;;;;;;;;1657928;29;21680;-63
2022/08/20 05:04:54;;;;;;;5.35;4.85;;;;;;;;;;1656866;29;21711;-63
2022/08/20 05:05:46;;;;;;;4.95;4.55;;;;;;;;;;1656531;29;21959;-63
2022/08/20 05:06:39;;;;;;;6.93;5.72;;;;;;;;;;1658604;29;21638;-63
2022/08/20 05:07:30;;;;;;;6.07;5.38;;;;;;;;;;1657091;29;21609;-62
2022/08/20 05:08:24;;;;;;;7.70;5.95;;;;;;;;;;1655449;29;21669;-63
2022/08/20 05:09:16;;;;;;;5.30;4.80;;;;;;;;;;1657127;29;21605;-61
2022/08/20 05:10:11;;;;;;;5.72;5.22;;;;;;;;;;1661277;29;21593;-61
2022/08/20 05:11:03;;;;;;;6.20;5.22;;;;;;;;;;1654291;29;22272;-62
2022/08/20 05:11:55;;;;;;;7.47;6.05;;;;;;;;;;1655870;29;21818;-62
2022/08/20 05:12:47;;;;;;;5.43;4.95;;;;;;;;;;1657358;29;21790;-62
2022/08/20 05:13:38;;;;;;;5.95;5.43;;;;;;;;;;1657375;29;22190;-63
2022/08/20 05:14:30;;;;;;;5.85;5.22;;;;;;;;;;1653981;29;21979;-61
2022/08/20 05:15:23;;;;;;;5.32;4.88;;;;;;;;;;1658798;29;21619;-61
2022/08/20 05:16:16;;;;;;;5.88;5.28;;;;;;;;;;1657280;29;22428;-62